createdAt,value
2022-10-29T00:01:11.235Z,16.70
2022-10-29T00:03:44.843Z,17.70
2022-10-29T00:06:19.200Z,21.80
2022-10-29T00:08:48.750Z,19.80
2022-10-29T00:11:20.423Z,20.60
2022-10-29T00:13:52.190Z,17.75
2022-10-29T00:16:23.032Z,22.27
2022-10-29T00:18:53.011Z,20.10
2022-10-29T00:21:27.258Z,13.88
2022-10-29T00:23:58.548Z,15.52
2022-10-29T00:26:30.725Z,17.35
2022-10-29T00:28:59.713Z,16.80
2022-10-29T00:31:37.456Z,15.07
2022-10-29T00:34:06.607Z,14.88
2022-10-29T00:36:38.731Z,20.38
2022-10-29T00:39:08.549Z,20.80
2022-10-29T00:41:41.336Z,20.40
2022-10-29T00:44:39.678Z,22.95
2022-10-29T00:47:19.699Z,18.80
2022-10-29T00:49:58.317Z,20.58
2022-10-29T00:52:33.606Z,20.17
2022-10-29T00:55:03.196Z,24.05
2022-10-29T00:57:37.103Z,27.20
2022-10-29T01:00:06.832Z,24.70
2022-10-29T01:02:38.092Z,26.95
2022-10-29T01:05:09.686Z,26.20
2022-10-29T01:07:49.258Z,21.73
2022-10-29T01:10:20.542Z,27.73
2022-10-29T01:12:59.546Z,21.90
2022-10-29T01:15:32.729Z,23.92
2022-10-29T01:18:08.038Z,23.58
2022-10-29T01:20:57.755Z,24.42
2022-10-29T01:23:59.449Z,19.92
2022-10-29T01:26:45.511Z,25.65
2022-10-29T01:29:22.931Z,27.63
2022-10-29T01:31:57.259Z,21.48
2022-10-29T01:34:39.585Z,26.17
2022-10-29T01:37:15.398Z,27.08
2022-10-29T01:39:58.055Z,28.05
2022-10-29T01:42:30.482Z,32.08
2022-10-29T01:45:06.495Z,29.58
2022-10-29T01:47:40.804Z,26.13
2022-10-29T01:50:14.110Z,21.02
2022-10-29T01:52:44.460Z,25.90
2022-10-29T01:55:17.617Z,21.48
2022-10-29T01:57:47.581Z,21.83
2022-10-29T02:00:19.812Z,17.88
2022-10-29T02:03:02.446Z,22.90
2022-10-29T02:05:46.568Z,19.20
2022-10-29T02:08:25.335Z,22.15
2022-10-29T02:11:12.152Z,16.95
2022-10-29T02:13:46.830Z,20.85
2022-10-29T02:16:18.086Z,18.35
2022-10-29T02:18:52.007Z,17.58
2022-10-29T02:21:24.530Z,16.65
2022-10-29T02:23:55.028Z,17.60
2022-10-29T02:26:28.231Z,17.90
2022-10-29T02:29:02.313Z,19.77
2022-10-29T02:35:27.535Z,17.10
2022-10-29T02:38:00.062Z,19.55
2022-10-29T02:40:29.963Z,19.50
2022-10-29T02:42:59.998Z,14.93
2022-10-29T02:45:29.685Z,12.73
2022-10-29T02:47:59.792Z,18.55
2022-10-29T02:50:36.677Z,17.20
2022-10-29T02:53:13.475Z,15.48
2022-10-29T02:55:45.994Z,13.30
2022-10-29T03:00:52.400Z,15.15
2022-10-29T03:03:31.234Z,13.10
2022-10-29T03:06:04.080Z,16.85
2022-10-29T03:08:35.854Z,27.80
2022-10-29T03:11:10.588Z,15.70
2022-10-29T03:13:41.687Z,16.05
2022-10-29T03:16:11.482Z,16.17
2022-10-29T03:18:42.747Z,15.05
2022-10-29T03:21:14.559Z,16.85
2022-10-29T03:23:45.695Z,13.48
2022-10-29T03:26:17.238Z,11.85
2022-10-29T03:28:48.599Z,20.25
2022-10-29T03:31:19.762Z,15.73
2022-10-29T03:33:54.782Z,12.75
2022-10-29T03:36:36.668Z,17.08
2022-10-29T03:42:17.820Z,16.33
2022-10-29T03:44:48.300Z,24.90
2022-10-29T03:47:26.971Z,14.05
2022-10-29T03:50:06.662Z,17.27
2022-10-29T03:52:48.082Z,19.67
2022-10-29T03:55:26.976Z,16.55
2022-10-29T03:57:59.182Z,19.35
2022-10-29T04:03:19.280Z,14.30
2022-10-29T04:06:09.182Z,11.30
2022-10-29T04:08:41.812Z,13.98
2022-10-29T04:11:30.471Z,16.08
2022-10-29T04:14:05.811Z,17.48
2022-10-29T04:16:51.084Z,18.08
2022-10-29T04:19:25.577Z,18.05
2022-10-29T04:31:10.413Z,17.77
2022-10-29T04:33:47.382Z,14.95
2022-10-29T04:36:36.650Z,23.60
2022-10-29T04:39:36.132Z,14.52
2022-10-29T04:42:10.221Z,21.13
2022-10-29T04:47:45.719Z,23.23
2022-10-29T04:50:25.257Z,17.85
2022-10-29T04:55:45.635Z,29.38
2022-10-29T04:58:20.580Z,23.98
2022-10-29T05:01:26.674Z,28.80
2022-10-29T05:07:25.667Z,34.92
2022-10-29T05:10:12.730Z,29.10
2022-10-29T05:16:11.477Z,36.58
2022-10-29T05:18:57.820Z,32.58
2022-10-29T05:25:14.108Z,36.40
2022-10-29T05:27:43.866Z,34.33
2022-10-29T05:30:15.157Z,38.65
2022-10-29T05:32:47.366Z,35.13
2022-10-29T05:35:29.246Z,37.70
2022-10-29T05:54:16.557Z,27.08
2022-10-29T05:57:01.700Z,28.42
2022-10-29T05:59:54.189Z,18.60
2022-10-29T06:02:49.337Z,23.58
2022-10-29T06:05:38.772Z,18.42
2022-10-29T06:12:13.598Z,17.45
2022-10-29T06:14:48.870Z,21.08
2022-10-29T06:21:33.601Z,15.10
2022-10-29T06:24:35.481Z,17.23
2022-10-29T06:27:32.171Z,13.32
2022-10-29T06:30:12.116Z,10.27
2022-10-29T06:33:03.807Z,9.65
2022-10-29T06:35:56.908Z,13.80
2022-10-29T06:38:41.458Z,12.55
2022-10-29T06:41:22.684Z,12.75
2022-10-29T06:44:31.885Z,11.30
2022-10-29T06:47:28.150Z,13.00
2022-10-29T06:53:42.629Z,13.50
2022-10-29T06:56:27.963Z,9.93
2022-10-29T06:59:07.836Z,11.27
2022-10-29T07:01:41.678Z,11.27
2022-10-29T07:04:21.997Z,8.40
2022-10-29T07:09:37.695Z,9.10
2022-10-29T07:12:15.182Z,9.18
2022-10-29T07:15:00.148Z,10.85
2022-10-29T07:23:17.862Z,9.40
2022-10-29T07:25:58.435Z,9.27
2022-10-29T07:28:48.278Z,12.57
2022-10-29T07:31:38.699Z,13.13
2022-10-29T07:40:56.137Z,15.45
2022-10-29T07:43:27.679Z,12.90
2022-10-29T07:46:05.737Z,15.60
2022-10-29T07:48:48.522Z,11.10
2022-10-29T07:51:19.284Z,8.88
2022-10-29T07:53:48.648Z,9.82
2022-10-29T07:56:17.304Z,7.05
2022-10-29T07:58:45.659Z,12.20
2022-10-29T08:01:17.025Z,10.88
2022-10-29T08:04:03.782Z,9.35
2022-10-29T08:06:38.001Z,8.07
2022-10-29T08:09:14.467Z,11.15
2022-10-29T08:14:56.200Z,8.18
2022-10-29T08:20:58.015Z,5.75
2022-10-29T08:23:29.432Z,14.20
2022-10-29T08:26:13.671Z,11.63
2022-10-29T08:31:39.970Z,7.47
2022-10-29T08:34:20.184Z,13.48
2022-10-29T08:37:01.392Z,9.88
2022-10-29T08:39:34.366Z,12.75
2022-10-29T08:42:27.862Z,8.95
2022-10-29T08:45:19.024Z,7.95
2022-10-29T08:47:57.327Z,14.25
2022-10-29T08:50:42.963Z,11.32
2022-10-29T08:53:33.887Z,11.85
2022-10-29T08:56:30.390Z,10.20
2022-10-29T08:59:07.477Z,7.95
2022-10-29T09:01:46.108Z,10.63
2022-10-29T09:04:40.921Z,8.60
2022-10-29T09:07:38.837Z,10.35
2022-10-29T09:10:25.507Z,9.80
2022-10-29T09:13:20.539Z,10.32
2022-10-29T09:16:23.896Z,8.93
2022-10-29T09:19:27.701Z,5.03
2022-10-29T09:25:40.705Z,6.00
2022-10-29T09:28:31.770Z,10.65
2022-10-29T09:31:17.549Z,7.72
2022-10-29T09:34:08.652Z,12.63
2022-10-29T09:36:43.744Z,6.88
2022-10-29T09:39:34.761Z,7.55
2022-10-29T09:42:35.979Z,9.85
2022-10-29T09:45:14.175Z,6.72
2022-10-29T09:48:25.660Z,12.13
2022-10-29T09:51:02.170Z,12.77
2022-10-29T09:53:35.303Z,9.77
2022-10-29T09:56:23.024Z,12.55
2022-10-29T10:06:07.973Z,4.53
2022-10-29T10:09:00.711Z,12.18
2022-10-29T10:17:54.185Z,6.60
2022-10-29T10:20:32.744Z,9.38
2022-10-29T10:23:23.820Z,7.72
2022-10-29T10:37:09.882Z,6.88
2022-10-29T10:40:15.796Z,10.18
2022-10-29T10:42:49.442Z,9.18
2022-10-29T10:45:18.951Z,6.60
2022-10-29T10:47:51.726Z,9.48
2022-10-29T11:01:51.198Z,9.68
2022-10-29T11:04:32.517Z,6.70
2022-10-29T11:07:02.646Z,7.63
2022-10-29T11:09:35.099Z,8.38
2022-10-29T11:12:06.750Z,7.32
2022-10-29T11:14:38.455Z,10.50
2022-10-29T11:17:10.199Z,8.02
2022-10-29T11:20:20.777Z,13.55
2022-10-29T11:22:51.607Z,7.97
2022-10-29T11:25:22.194Z,10.20
2022-10-29T11:27:52.795Z,7.15
2022-10-29T11:30:21.446Z,6.15
2022-10-29T11:32:59.761Z,8.27
2022-10-29T11:35:34.277Z,9.60
2022-10-29T11:38:04.359Z,8.32
2022-10-29T11:40:37.572Z,7.95
2022-10-29T11:43:10.998Z,9.60
2022-10-29T11:45:45.879Z,10.05
2022-10-29T11:48:21.864Z,8.75
2022-10-29T11:50:54.317Z,9.18
2022-10-29T11:53:48.631Z,7.00
2022-10-29T11:56:24.893Z,10.10
2022-10-29T11:59:01.643Z,8.00
2022-10-29T12:01:36.062Z,11.02
2022-10-29T12:04:24.124Z,4.38
2022-10-29T12:06:58.211Z,8.15
2022-10-29T12:09:35.214Z,8.52
2022-10-29T12:12:05.980Z,7.70
2022-10-29T12:14:38.344Z,8.35
2022-10-29T12:17:09.289Z,11.70
2022-10-29T12:19:45.983Z,4.72
2022-10-29T12:22:21.971Z,9.65
2022-10-29T12:25:00.112Z,7.35
2022-10-29T12:27:32.155Z,9.68
2022-10-29T12:30:02.780Z,7.20
2022-10-29T12:32:33.141Z,6.88
2022-10-29T12:35:07.480Z,6.72
2022-10-29T12:37:39.483Z,7.45
2022-10-29T12:40:14.262Z,5.15
2022-10-29T12:42:42.787Z,6.85
2022-10-29T12:45:16.804Z,6.35
2022-10-29T12:47:49.684Z,5.07
2022-10-29T12:50:27.153Z,6.43
2022-10-29T12:52:58.895Z,7.93
2022-10-29T12:55:27.230Z,5.07
2022-10-29T12:57:55.501Z,7.68
2022-10-29T13:00:33.390Z,9.00
2022-10-29T13:03:02.521Z,12.13
2022-10-29T13:08:19.987Z,6.55
2022-10-29T13:10:55.774Z,7.70
2022-10-29T13:13:37.274Z,9.85
2022-10-29T13:16:08.000Z,7.68
2022-10-29T13:18:45.960Z,3.78
2022-10-29T13:21:14.195Z,6.47
2022-10-29T13:24:02.745Z,5.15
2022-10-29T13:26:45.686Z,5.63
2022-10-29T13:29:34.028Z,6.22
2022-10-29T13:32:04.892Z,9.43
2022-10-29T13:34:51.811Z,7.10
2022-10-29T13:37:38.637Z,5.05
2022-10-29T13:40:25.589Z,6.40
2022-10-29T13:42:58.527Z,6.43
2022-10-29T13:45:27.472Z,4.60
2022-10-29T13:48:00.158Z,7.87
2022-10-29T13:50:28.636Z,8.32
2022-10-29T13:52:58.153Z,10.15
2022-10-29T13:55:27.790Z,11.43
2022-10-29T14:00:24.711Z,7.68
2022-10-29T14:02:59.163Z,8.00
2022-10-29T14:05:30.112Z,6.63
2022-10-29T14:08:00.566Z,10.40
2022-10-29T14:10:32.519Z,10.98
2022-10-29T14:13:02.544Z,8.00
2022-10-29T14:15:30.809Z,11.43
2022-10-29T14:18:17.473Z,10.27
2022-10-29T14:20:55.331Z,12.10
2022-10-29T14:23:23.497Z,7.30
2022-10-29T14:25:52.306Z,7.47
2022-10-29T14:28:22.415Z,12.20
2022-10-29T14:31:00.077Z,9.45
2022-10-29T14:33:31.624Z,6.72
2022-10-29T14:36:02.888Z,8.77
2022-10-29T14:38:35.467Z,6.38
2022-10-29T14:41:03.868Z,11.13
2022-10-29T14:43:32.252Z,4.20
2022-10-29T14:46:11.258Z,5.20
2022-10-29T14:48:46.362Z,7.90
2022-10-29T14:51:19.606Z,7.70
2022-10-29T14:53:53.309Z,6.40
2022-10-29T14:56:22.038Z,10.32
2022-10-29T14:58:50.516Z,8.73
2022-10-29T15:01:23.229Z,8.35
2022-10-29T15:04:00.700Z,6.93
2022-10-29T15:06:30.014Z,8.10
2022-10-29T15:09:00.113Z,9.35
2022-10-29T15:11:46.248Z,3.13
2022-10-29T15:16:55.766Z,9.30
2022-10-29T15:19:25.993Z,10.15
2022-10-29T15:21:54.074Z,7.30
2022-10-29T15:24:24.110Z,6.35
2022-10-29T15:26:53.464Z,7.90
2022-10-29T15:29:26.781Z,5.53
2022-10-29T15:31:58.800Z,5.80
2022-10-29T15:34:30.515Z,9.57
2022-10-29T15:37:00.372Z,12.77
2022-10-29T15:39:29.467Z,9.38
2022-10-29T15:41:59.244Z,7.78
2022-10-29T15:44:38.063Z,4.53
2022-10-29T15:47:23.161Z,8.77
2022-10-29T15:49:52.967Z,10.50
2022-10-29T15:54:49.243Z,8.55
2022-10-29T15:57:17.931Z,8.35
2022-10-29T15:59:46.332Z,5.10
2022-10-29T16:02:15.480Z,6.25
2022-10-29T16:04:44.805Z,6.25
2022-10-29T16:07:15.105Z,6.78
2022-10-29T16:09:45.075Z,7.25
2022-10-29T16:12:13.571Z,8.02
2022-10-29T16:14:41.688Z,7.43
2022-10-29T16:17:13.552Z,8.07
2022-10-29T16:19:42.115Z,10.70
2022-10-29T16:22:13.252Z,6.97
2022-10-29T16:24:43.147Z,5.50
2022-10-29T16:27:14.404Z,4.68
2022-10-29T16:29:52.842Z,6.50
2022-10-29T16:32:25.207Z,4.80
2022-10-29T16:34:53.800Z,10.98
2022-10-29T16:37:22.682Z,6.07
2022-10-29T16:39:52.581Z,7.75
2022-10-29T16:42:28.712Z,6.65
2022-10-29T16:44:57.239Z,8.57
2022-10-29T16:47:25.445Z,6.35
2022-10-29T16:49:53.651Z,8.40
2022-10-29T16:52:24.242Z,5.17
2022-10-29T16:54:55.971Z,7.18
2022-10-29T16:57:25.250Z,8.25
2022-10-29T16:59:53.369Z,6.05
2022-10-29T17:02:21.695Z,5.40
2022-10-29T17:04:49.973Z,6.47
2022-10-29T17:07:18.153Z,7.68
2022-10-29T17:09:47.053Z,8.75
2022-10-29T17:12:16.611Z,9.47
2022-10-29T17:14:45.029Z,8.32
2022-10-29T17:17:13.725Z,5.80
2022-10-29T17:19:41.997Z,6.63
2022-10-29T17:22:14.630Z,6.53
2022-10-29T17:24:42.727Z,4.68
2022-10-29T17:27:11.816Z,5.93
2022-10-29T17:29:41.559Z,5.80
2022-10-29T17:34:37.758Z,7.10
2022-10-29T17:37:06.611Z,4.28
2022-10-29T17:39:34.994Z,5.90
2022-10-29T17:42:03.151Z,5.07
2022-10-29T17:44:33.960Z,10.50
2022-10-29T17:47:03.635Z,5.70
2022-10-29T17:51:59.884Z,5.95
2022-10-29T17:54:28.473Z,7.85
2022-10-29T17:56:57.076Z,6.47
2022-10-29T17:59:25.457Z,8.05
2022-10-29T18:01:53.573Z,9.50
2022-10-29T18:04:23.385Z,8.50
2022-10-29T18:09:34.726Z,7.50
2022-10-29T18:12:02.851Z,11.88
2022-10-29T18:14:30.964Z,6.13
2022-10-29T18:16:59.569Z,5.45
2022-10-29T18:19:28.960Z,7.85
2022-10-29T18:21:57.314Z,5.50
2022-10-29T18:24:25.293Z,7.32
2022-10-29T18:26:53.526Z,5.72
2022-10-29T18:29:21.493Z,5.82
2022-10-29T18:31:49.734Z,9.85
2022-10-29T18:34:17.815Z,9.88
2022-10-29T18:36:47.943Z,4.88
2022-10-29T18:39:16.261Z,7.82
2022-10-29T18:41:44.431Z,7.95
2022-10-29T18:44:12.421Z,6.65
2022-10-29T18:46:40.801Z,7.43
2022-10-29T18:49:11.175Z,7.28
2022-10-29T18:51:39.199Z,10.02
2022-10-29T18:54:10.838Z,8.35
2022-10-29T18:56:39.175Z,6.93
2022-10-29T18:59:07.842Z,9.60
2022-10-29T19:01:36.120Z,8.35
2022-10-29T19:04:05.509Z,8.67
2022-10-29T19:06:34.280Z,7.93
2022-10-29T19:09:03.922Z,5.78
2022-10-29T19:14:02.238Z,5.85
2022-10-29T19:16:31.424Z,5.45
2022-10-29T19:19:00.470Z,5.80
2022-10-29T19:21:28.786Z,8.27
2022-10-29T19:23:57.254Z,7.80
2022-10-29T19:26:26.028Z,5.78
2022-10-29T19:28:54.963Z,7.85
2022-10-29T19:31:26.405Z,7.82
2022-10-29T19:33:55.536Z,8.10
2022-10-29T19:38:51.727Z,3.17
2022-10-29T19:41:20.078Z,7.30
2022-10-29T19:43:48.347Z,5.72
2022-10-29T19:46:17.682Z,4.45
2022-10-29T19:48:51.455Z,10.70
2022-10-29T19:51:19.772Z,8.73
2022-10-29T19:53:48.034Z,6.15
2022-10-29T19:56:16.836Z,5.88
2022-10-29T19:58:45.442Z,9.30
2022-10-29T20:01:16.204Z,8.40
2022-10-29T20:03:45.100Z,7.60
2022-10-29T20:06:15.102Z,6.97
2022-10-29T20:08:43.514Z,9.45
2022-10-29T20:11:11.758Z,4.60
2022-10-29T20:13:40.282Z,7.38
2022-10-29T20:16:09.681Z,6.40
2022-10-29T20:18:38.440Z,5.05
2022-10-29T20:21:07.301Z,6.72
2022-10-29T20:23:37.096Z,6.32
2022-10-29T20:26:05.501Z,10.45
2022-10-29T20:28:33.761Z,7.25
2022-10-29T20:31:26.127Z,4.65
2022-10-29T20:33:56.868Z,7.07
2022-10-29T20:36:25.411Z,6.13
2022-10-29T20:38:55.315Z,4.95
2022-10-29T20:41:23.885Z,8.13
2022-10-29T20:43:52.461Z,7.05
2022-10-29T20:46:20.805Z,6.05
2022-10-29T20:48:48.837Z,7.32
2022-10-29T20:51:17.296Z,4.88
2022-10-29T20:53:45.507Z,7.18
2022-10-29T20:56:16.478Z,10.20
2022-10-29T20:58:45.235Z,2.67
2022-10-29T21:01:14.252Z,5.13
2022-10-29T21:03:42.666Z,6.20
2022-10-29T21:06:15.719Z,7.13
2022-10-29T21:08:44.988Z,5.13
2022-10-29T21:11:15.382Z,6.55
2022-10-29T21:13:43.864Z,6.38
2022-10-29T21:16:14.202Z,3.72
2022-10-29T21:19:01.016Z,7.05
2022-10-29T21:21:30.515Z,6.95
2022-10-29T21:23:58.964Z,11.02
2022-10-29T21:26:29.210Z,8.68
2022-10-29T21:28:57.917Z,4.32
2022-10-29T21:31:26.648Z,6.22
2022-10-29T21:33:55.063Z,6.43
2022-10-29T21:36:23.934Z,5.60
2022-10-29T21:38:52.279Z,8.40
2022-10-29T21:41:20.312Z,4.97
2022-10-29T21:43:49.983Z,3.45
2022-10-29T21:46:18.046Z,6.25
2022-10-29T21:48:46.097Z,5.00
2022-10-29T21:51:15.445Z,5.63
2022-10-29T21:53:43.467Z,3.22
2022-10-29T21:56:13.177Z,7.85
2022-10-29T21:58:41.676Z,6.55
2022-10-29T22:01:12.006Z,5.15
2022-10-29T22:03:41.812Z,5.00
2022-10-29T22:06:11.854Z,5.35
2022-10-29T22:08:40.001Z,5.45
2022-10-29T22:11:08.081Z,4.90
2022-10-29T22:13:36.620Z,3.30
2022-10-29T22:16:05.438Z,5.13
2022-10-29T22:18:35.092Z,7.57
2022-10-29T22:21:04.298Z,6.05
2022-10-29T22:23:32.344Z,3.67
2022-10-29T22:26:00.354Z,6.35
2022-10-29T22:28:28.595Z,4.18
2022-10-29T22:31:00.635Z,5.40
2022-10-29T22:33:29.177Z,4.35
2022-10-29T22:36:04.185Z,6.57
2022-10-29T22:38:33.906Z,5.22
2022-10-29T22:41:05.833Z,7.70
2022-10-29T22:43:33.869Z,4.15
2022-10-29T22:46:02.282Z,4.78
2022-10-29T22:48:30.298Z,5.00
2022-10-29T22:51:03.711Z,2.97
2022-10-29T22:53:32.662Z,5.82
2022-10-29T22:56:00.887Z,6.37
2022-10-29T22:58:29.296Z,3.03
2022-10-29T23:01:04.386Z,3.42
2022-10-29T23:03:33.043Z,6.20
2022-10-29T23:06:01.516Z,5.68
2022-10-29T23:08:31.335Z,4.40
2022-10-29T23:11:00.512Z,4.70
2022-10-29T23:13:28.826Z,4.63
2022-10-29T23:15:56.913Z,9.70
2022-10-29T23:18:25.278Z,3.35
2022-10-29T23:20:58.629Z,5.03
2022-10-29T23:23:27.297Z,6.40
2022-10-29T23:26:00.878Z,9.32
2022-10-29T23:28:29.202Z,4.90
2022-10-29T23:30:57.685Z,4.00
2022-10-29T23:33:25.993Z,6.87
2022-10-29T23:35:54.286Z,4.85
2022-10-29T23:38:22.293Z,4.70
2022-10-29T23:40:50.409Z,6.10
2022-10-29T23:43:20.291Z,5.77
2022-10-29T23:48:16.191Z,7.82
2022-10-29T23:50:44.528Z,1.98
2022-10-29T23:53:13.338Z,5.57
2022-10-29T23:55:42.925Z,6.25
2022-10-29T23:58:11.334Z,6.60
